Time;durP1;ratioP1;P1;durP2;ratioP2;P2;SDS_P1;SDS_P2;PMS_P1;PMS_P2;Temp;Humidity;BMP_temperature;BMP_pressure;BME280_temperature;BME280_humidity;BME280_pressure;Samples;Min_cycle;Max_cycle;Signal;HPM_P1;HPM_P2
2022/01/23 00:00:15;;;;;;;28.80;8.05;;;-3.50;99.90;;;;;;4317293;28;657856;-71
2022/01/23 00:03:08;;;;;;;25.87;7.30;;;-3.50;99.90;;;;;;4339988;28;657735;-70
2022/01/23 00:05:57;;;;;;;23.87;7.60;;;-3.50;99.90;;;;;;4335208;28;657689;-70
2022/01/23 00:08:45;;;;;;;24.57;7.83;;;-3.50;99.90;;;;;;4336526;28;659123;-70
2022/01/23 00:11:39;;;;;;;23.00;7.90;;;-3.50;99.90;;;;;;4362081;28;657434;-70
2022/01/23 00:17:33;;;;;;;26.17;7.20;;;-3.60;99.90;;;;;;4338580;28;658292;-70
2022/01/23 00:20:21;;;;;;;23.53;7.80;;;-3.60;99.90;;;;;;4338575;28;657963;-70
2022/01/23 00:23:15;;;;;;;27.23;8.17;;;-3.60;99.90;;;;;;4343570;28;657359;-71
2022/01/23 00:32:15;;;;;;;25.77;7.27;;;-3.60;99.90;;;;;;4337265;28;658960;-71
2022/01/23 00:35:03;;;;;;;23.23;6.97;;;-3.70;99.90;;;;;;4378985;28;657506;-70
2022/01/23 00:37:50;;;;;;;27.17;7.75;;;-3.70;99.90;;;;;;4360863;28;658122;-70
2022/01/23 00:40:39;;;;;;;22.42;6.97;;;-3.70;99.90;;;;;;4364614;28;657815;-70
2022/01/23 00:43:30;;;;;;;21.77;7.87;;;-3.70;99.90;;;;;;4382439;28;657783;-70
2022/01/23 00:46:29;;;;;;;21.45;6.20;;;-3.70;99.90;;;;;;4355689;28;657996;-70
2022/01/23 00:49:27;;;;;;;28.33;7.93;;;-3.70;99.90;;;;;;4349651;28;657922;-70
2022/01/23 00:52:17;;;;;;;13.90;4.17;;;-3.70;99.90;;;;;;4359424;28;657748;-70
2022/01/23 00:55:06;;;;;;;25.60;7.73;;;-3.70;99.90;;;;;;4354397;28;658726;-70
2022/01/23 00:57:53;;;;;;;20.90;6.10;;;-3.80;99.90;;;;;;4359124;28;657579;-71
2022/01/23 01:00:41;;;;;;;28.83;8.03;;;-3.70;99.90;;;;;;4378687;28;658941;-70
2022/01/23 01:03:30;;;;;;;22.93;7.43;;;-3.70;99.90;;;;;;4359466;28;657347;-71
2022/01/23 01:06:18;;;;;;;27.33;8.80;;;-3.70;99.90;;;;;;4378331;28;657392;-70
2022/01/23 01:09:08;;;;;;;24.33;7.70;;;-3.70;99.90;;;;;;4354215;28;658944;-70
2022/01/23 01:11:58;;;;;;;23.60;7.43;;;-3.70;99.90;;;;;;4359482;28;658906;-70
2022/01/23 01:15:11;;;;;;;22.23;7.50;;;-3.70;99.90;;;;;;4337360;28;658215;-70
2022/01/23 01:30:29;;;;;;;26.53;6.93;;;-3.80;99.90;;;;;;4355269;28;658047;-70
2022/01/23 01:33:24;;;;;;;24.53;8.27;;;-3.90;99.90;;;;;;4354165;28;658140;-70
2022/01/23 01:36:21;;;;;;;22.73;7.63;;;-3.90;99.90;;;;;;4354892;28;657950;-70
2022/01/23 01:39:12;;;;;;;26.33;7.87;;;-3.80;99.90;;;;;;4359342;28;657474;-70
2022/01/23 01:42:00;;;;;;;22.27;7.60;;;-3.90;99.90;;;;;;4359691;28;657590;-70
2022/01/23 01:44:47;;;;;;;26.53;8.47;;;-3.80;99.90;;;;;;4381637;28;657899;-69
2022/01/23 01:47:35;;;;;;;24.03;7.97;;;-3.90;99.90;;;;;;4355234;28;659317;-70
2022/01/23 01:50:22;;;;;;;27.35;8.90;;;-3.90;99.90;;;;;;4377498;28;658436;-70
2022/01/23 01:53:12;;;;;;;22.57;8.60;;;-4.00;99.90;;;;;;4354934;28;659218;-70
2022/01/23 01:55:59;;;;;;;27.70;8.90;;;-4.00;99.90;;;;;;4356941;28;657728;-70
2022/01/23 01:59:12;;;;;;;24.47;8.40;;;-4.00;99.90;;;;;;4374464;28;657503;-70
2022/01/23 02:08:23;;;;;;;19.90;7.30;;;-4.00;99.90;;;;;;4354518;28;658094;-70
2022/01/23 02:11:16;;;;;;;26.90;8.63;;;-3.90;99.90;;;;;;4354357;28;658042;-68
2022/01/23 02:14:15;;;;;;;21.47;7.03;;;-3.90;99.90;;;;;;4335904;28;657694;-71
2022/01/23 02:17:19;;;;;;;21.90;8.25;;;-3.90;99.90;;;;;;4341570;28;657196;-71
2022/01/23 02:23:42;;;;;;;24.80;7.80;;;-3.90;99.90;;;;;;4331843;28;658947;-70
2022/01/23 02:51:26;;;;;;;29.53;9.23;;;-4.00;99.90;;;;;;4354104;28;657645;-69
2022/01/23 02:54:42;;;;;;;29.23;9.10;;;-4.00;99.90;;;;;;4334363;28;658428;-71
2022/01/23 02:57:39;;;;;;;28.57;10.17;;;-4.00;99.90;;;;;;4330406;28;658711;-70
2022/01/23 03:00:34;;;;;;;25.50;8.90;;;-4.10;99.90;;;;;;4352269;28;658437;-70
2022/01/23 03:03:25;;;;;;;23.50;8.27;;;-4.10;99.90;;;;;;4376968;28;657615;-72
2022/01/23 03:06:34;;;;;;;23.83;9.10;;;-4.00;99.90;;;;;;4376723;28;657560;-68
2022/01/23 03:15:30;;;;;;;22.60;9.20;;;-4.10;99.90;;;;;;4330600;28;657962;-71
2022/01/23 03:24:52;;;;;;;24.03;9.03;;;-4.20;99.90;;;;;;4331257;28;658778;-71
2022/01/23 03:28:04;;;;;;;29.27;8.63;;;-4.20;99.90;;;;;;4335241;28;657851;-71
2022/01/23 03:31:04;;;;;;;29.10;9.87;;;-4.20;99.90;;;;;;4353434;28;657558;-70
2022/01/23 03:33:52;;;;;;;34.73;11.03;;;-4.20;99.90;;;;;;4353638;28;658027;-70
2022/01/23 03:36:41;;;;;;;35.97;9.90;;;-4.20;99.90;;;;;;4356240;28;659189;-69
2022/01/23 03:39:29;;;;;;;28.03;10.57;;;-4.30;99.90;;;;;;4357498;28;657427;-70
2022/01/23 03:42:17;;;;;;;34.87;11.57;;;-4.30;99.90;;;;;;4378960;28;658256;-70
2022/01/23 03:45:24;;;;;;;31.87;11.67;;;-4.30;99.90;;;;;;4359167;28;658548;-70
2022/01/23 03:51:17;;;;;;;40.57;13.70;;;-4.30;99.90;;;;;;4333943;28;659571;-70
2022/01/23 03:54:06;;;;;;;41.87;13.00;;;-4.30;99.90;;;;;;4358895;28;660454;-70
2022/01/23 03:56:55;;;;;;;32.07;13.50;;;-4.40;99.90;;;;;;4359458;28;659239;-70
2022/01/23 03:59:42;;;;;;;35.95;13.20;;;-4.30;99.90;;;;;;4377884;28;659348;-70
2022/01/23 04:02:30;;;;;;;37.83;13.37;;;-4.40;99.90;;;;;;4354691;28;660600;-70
2022/01/23 04:05:17;;;;;;;43.17;14.67;;;-4.40;99.90;;;;;;4377871;28;658427;-69
2022/01/23 04:08:05;;;;;;;40.23;14.53;;;-4.40;99.90;;;;;;4358980;28;659100;-70
2022/01/23 04:10:54;;;;;;;34.53;13.17;;;-4.40;99.90;;;;;;4372456;28;659197;-70
2022/01/23 04:13:47;;;;;;;34.20;13.00;;;-4.40;99.90;;;;;;4377097;28;658367;-70
2022/01/23 04:17:01;;;;;;;45.17;14.03;;;-4.40;99.90;;;;;;4332794;28;660272;-70
2022/01/23 04:20:05;;;;;;;42.73;14.73;;;-4.40;99.90;;;;;;4359090;28;658604;-70
2022/01/23 04:32:34;;;;;;;36.85;14.32;;;-4.50;99.90;;;;;;4352345;28;658681;-70
2022/01/23 04:35:44;;;;;;;44.83;14.77;;;-4.50;99.90;;;;;;4358817;28;659108;-70
2022/01/23 05:00:36;;;;;;;36.90;15.53;;;-4.40;99.90;;;;;;4354420;28;659208;-70
2022/01/23 05:06:31;;;;;;;42.95;15.77;;;-4.40;99.90;;;;;;4338430;28;659288;-69
2022/01/23 05:09:18;;;;;;;41.00;15.90;;;-4.40;99.90;;;;;;4334672;28;658432;-70
2022/01/23 05:12:08;;;;;;;42.97;15.43;;;-4.40;99.90;;;;;;4378632;28;659750;-70
2022/01/23 05:14:57;;;;;;;46.03;14.80;;;-4.40;99.90;;;;;;4358418;28;659236;-70
2022/01/23 05:17:45;;;;;;;41.37;16.50;;;-4.40;99.90;;;;;;4358000;28;659446;-70
2022/01/23 05:20:33;;;;;;;30.77;12.10;;;-4.50;99.90;;;;;;4376299;28;659984;-70
2022/01/23 05:23:21;;;;;;;36.07;14.50;;;-4.40;99.90;;;;;;4353778;28;660645;-69
2022/01/23 05:26:08;;;;;;;46.97;16.80;;;-4.40;99.90;;;;;;4357976;28;658396;-70
2022/01/23 05:28:56;;;;;;;45.30;16.63;;;-4.40;99.90;;;;;;4379840;28;659326;-69
2022/01/23 05:31:45;;;;;;;47.03;15.73;;;-4.40;99.90;;;;;;4357772;28;658702;-70
2022/01/23 05:34:33;;;;;;;40.17;16.07;;;-4.50;99.90;;;;;;4372279;28;658647;-70
2022/01/23 05:37:20;;;;;;;46.47;17.33;;;-4.50;99.90;;;;;;4376698;28;659887;-70
2022/01/23 05:40:14;;;;;;;44.20;15.93;;;-4.50;99.90;;;;;;4357983;28;659048;-70
2022/01/23 05:43:02;;;;;;;43.83;16.73;;;-4.50;99.90;;;;;;4353514;28;659129;-70
2022/01/23 05:45:49;;;;;;;42.50;15.90;;;-4.60;99.90;;;;;;4357969;28;658826;-70
2022/01/23 05:48:38;;;;;;;46.37;16.13;;;-4.60;99.90;;;;;;4376652;28;659080;-70
2022/01/23 05:51:26;;;;;;;53.10;17.23;;;-4.50;99.90;;;;;;4353351;28;659967;-70
2022/01/23 05:54:14;;;;;;;43.27;16.27;;;-4.50;99.90;;;;;;4357210;28;659082;-70
2022/01/23 05:57:01;;;;;;;50.57;17.37;;;-4.50;99.90;;;;;;4376268;28;660655;-70
2022/01/23 05:59:49;;;;;;;41.03;16.17;;;-4.50;99.90;;;;;;4357264;28;659198;-70
2022/01/23 06:02:36;;;;;;;44.00;16.37;;;-4.50;99.90;;;;;;4375491;28;660951;-70
2022/01/23 06:05:25;;;;;;;46.85;17.02;;;-4.50;99.90;;;;;;4353446;28;658960;-70
2022/01/23 06:08:13;;;;;;;43.27;16.03;;;-4.50;99.90;;;;;;4370285;28;658972;-70
2022/01/23 06:11:01;;;;;;;44.03;16.33;;;-4.50;99.90;;;;;;4378778;28;659014;-69
2022/01/23 06:13:48;;;;;;;40.63;16.57;;;-4.50;99.90;;;;;;4357236;28;658413;-71
2022/01/23 06:16:36;;;;;;;55.53;18.50;;;-4.60;99.90;;;;;;4378786;28;659447;-69
2022/01/23 06:19:23;;;;;;;50.23;18.43;;;-4.60;99.90;;;;;;4356741;28;659290;-70
2022/01/23 06:22:14;;;;;;;43.00;17.60;;;-4.70;99.90;;;;;;4378203;28;658588;-69
2022/01/23 06:25:05;;;;;;;46.77;17.67;;;-4.70;99.90;;;;;;4353340;28;658823;-69
2022/01/23 06:27:53;;;;;;;43.70;16.30;;;-4.60;99.90;;;;;;4348915;28;658504;-71
2022/01/23 06:30:41;;;;;;;47.73;17.97;;;-4.60;99.90;;;;;;4374451;28;659272;-69
2022/01/23 06:33:28;;;;;;;53.60;19.80;;;-4.50;99.90;;;;;;4339556;28;658777;-70
2022/01/23 06:36:16;;;;;;;42.37;17.90;;;-4.50;99.90;;;;;;4362671;28;659120;-69
2022/01/23 06:39:08;;;;;;;38.90;14.73;;;-4.50;99.90;;;;;;4340071;28;658730;-71
2022/01/23 06:41:55;;;;;;;49.90;18.20;;;-4.50;99.90;;;;;;4339666;28;659231;-69
2022/01/23 06:44:43;;;;;;;48.70;17.93;;;-4.50;99.90;;;;;;4339488;28;658325;-70
2022/01/23 06:47:31;;;;;;;40.23;16.50;;;-4.50;99.90;;;;;;4362624;28;659196;-69
2022/01/23 06:50:18;;;;;;;48.20;18.70;;;-4.50;99.90;;;;;;4339697;28;658606;-69
2022/01/23 06:53:06;;;;;;;44.83;17.77;;;-4.50;99.90;;;;;;4358734;28;659996;-68
2022/01/23 06:55:55;;;;;;;53.90;19.37;;;-4.50;99.90;;;;;;4338942;28;658927;-69
2022/01/23 06:58:43;;;;;;;49.33;18.97;;;-4.40;99.90;;;;;;4354405;28;658920;-70
2022/01/23 07:01:33;;;;;;;56.23;19.37;;;-4.40;99.90;;;;;;4357753;28;660939;-69
2022/01/23 07:04:21;;;;;;;54.53;20.15;;;-4.40;99.90;;;;;;4339408;28;658936;-69
2022/01/23 07:07:14;;;;;;;52.60;20.07;;;-4.20;99.90;;;;;;4339305;28;658730;-69
2022/01/23 07:10:06;;;;;;;47.25;18.55;;;-4.30;99.90;;;;;;4335253;28;659856;-69
2022/01/23 07:13:04;;;;;;;49.17;16.23;;;-4.30;99.90;;;;;;4314750;28;659529;-69
2022/01/23 07:15:51;;;;;;;48.67;19.30;;;-4.30;99.90;;;;;;4334583;28;659086;-69
2022/01/23 07:18:39;;;;;;;41.87;16.17;;;-4.20;99.90;;;;;;4339158;28;658462;-69
2022/01/23 07:21:26;;;;;;;49.77;18.60;;;-4.20;99.90;;;;;;4361915;28;659249;-68
2022/01/23 07:24:14;;;;;;;43.13;18.63;;;-4.20;99.90;;;;;;4341268;28;658482;-69
2022/01/23 07:27:11;;;;;;;51.63;19.70;;;-4.10;99.90;;;;;;4361553;28;659363;-70
2022/01/23 07:30:00;;;;;;;51.20;19.70;;;-4.10;99.90;;;;;;4343153;28;659174;-71
2022/01/23 07:32:48;;;;;;;51.50;18.30;;;-4.00;99.90;;;;;;4342600;28;658728;-68
2022/01/23 07:35:36;;;;;;;53.10;20.17;;;-3.90;99.90;;;;;;4365906;28;659252;-70
2022/01/23 07:38:23;;;;;;;52.30;20.10;;;-3.90;99.90;;;;;;4342256;28;658699;-70
2022/01/23 07:41:11;;;;;;;52.47;20.63;;;-3.90;99.90;;;;;;4364250;28;659100;-70
2022/01/23 07:43:59;;;;;;;52.83;20.63;;;-3.80;99.90;;;;;;4342224;28;658320;-71
2022/01/23 07:46:47;;;;;;;59.85;22.35;;;-3.80;99.90;;;;;;4360872;28;659900;-70
2022/01/23 07:49:35;;;;;;;62.47;20.87;;;-3.70;99.90;;;;;;4338427;28;660633;-69
2022/01/23 07:52:23;;;;;;;49.17;20.70;;;-3.60;99.90;;;;;;4360366;28;658573;-70
2022/01/23 07:55:12;;;;;;;51.40;21.67;;;-3.60;99.90;;;;;;4365955;28;659003;-70
2022/01/23 07:58:05;;;;;;;55.80;22.27;;;-3.50;99.90;;;;;;4339132;28;658554;-69
2022/01/23 08:00:52;;;;;;;55.25;20.35;;;-3.40;99.90;;;;;;4338287;28;658752;-69
2022/01/23 08:03:41;;;;;;;58.90;22.03;;;-3.30;99.90;;;;;;4339221;28;660593;-69
2022/01/23 08:06:32;;;;;;;52.07;20.37;;;-3.20;99.90;;;;;;4340409;28;659163;-70
2022/01/23 08:09:20;;;;;;;55.90;21.40;;;-3.20;99.90;;;;;;4342167;28;659722;-70
2022/01/23 08:12:09;;;;;;;50.27;20.60;;;-3.20;99.90;;;;;;4358252;28;658902;-71
2022/01/23 08:14:57;;;;;;;46.80;19.57;;;-3.30;99.90;;;;;;4359429;28;658695;-69
2022/01/23 08:17:45;;;;;;;55.50;20.83;;;-3.20;99.90;;;;;;4338035;28;660368;-69
2022/01/23 08:20:34;;;;;;;49.20;19.17;;;-3.20;99.90;;;;;;4361039;28;659113;-69
2022/01/23 08:23:22;;;;;;;49.87;19.40;;;-3.20;99.90;;;;;;4338048;28;659653;-69
2022/01/23 08:26:09;;;;;;;43.50;16.10;;;-3.10;99.90;;;;;;4338236;28;659127;-70
2022/01/23 08:28:57;;;;;;;45.70;20.10;;;-3.10;99.90;;;;;;4360679;28;658696;-69
2022/01/23 08:31:45;;;;;;;47.60;19.53;;;-3.00;99.90;;;;;;4345924;28;659761;-70
2022/01/23 08:34:34;;;;;;;50.83;19.90;;;-3.00;99.90;;;;;;4359695;28;658719;-70
2022/01/23 08:37:23;;;;;;;52.70;21.02;;;-2.90;99.90;;;;;;4359826;28;659253;-69
2022/01/23 08:40:19;;;;;;;57.93;21.80;;;-2.90;99.90;;;;;;4337567;28;660059;-68
2022/01/23 08:43:07;;;;;;;54.03;21.43;;;-3.00;99.90;;;;;;4338008;28;659776;-69
2022/01/23 08:45:54;;;;;;;58.90;20.88;;;-2.90;99.90;;;;;;4341526;28;658539;-69
2022/01/23 08:48:42;;;;;;;57.13;19.77;;;-2.90;99.90;;;;;;4357561;28;659802;-69
2022/01/23 08:51:30;;;;;;;56.40;21.00;;;-2.90;99.90;;;;;;4336944;28;660102;-69
2022/01/23 08:54:19;;;;;;;53.13;21.37;;;-2.80;99.90;;;;;;4359992;28;659200;-69
2022/01/23 08:57:07;;;;;;;56.50;21.10;;;-2.60;99.90;;;;;;4337374;28;659450;-69
2022/01/23 08:59:55;;;;;;;53.83;19.63;;;-2.50;99.90;;;;;;4337580;28;659977;-69
2022/01/23 09:02:42;;;;;;;49.03;19.73;;;-2.50;99.90;;;;;;4360676;28;659063;-68
2022/01/23 09:05:30;;;;;;;56.57;20.83;;;-2.50;99.90;;;;;;4338010;28;660779;-68
2022/01/23 09:08:19;;;;;;;57.30;19.97;;;-2.50;99.90;;;;;;4357903;28;658980;-70
2022/01/23 09:11:12;;;;;;;62.57;23.00;;;-2.40;99.90;;;;;;4363160;28;658534;-69
2022/01/23 09:14:06;;;;;;;62.00;21.93;;;-2.30;99.90;;;;;;4314419;28;659017;-69
2022/01/23 09:16:54;;;;;;;58.40;21.10;;;-2.30;99.90;;;;;;4339007;28;658343;-69
2022/01/23 09:19:45;;;;;;;54.97;20.83;;;-2.30;99.90;;;;;;4359148;28;658490;-68
2022/01/23 09:22:33;;;;;;;58.83;21.73;;;-2.20;99.90;;;;;;4330315;28;659741;-70
2022/01/23 09:25:21;;;;;;;58.63;21.70;;;-1.90;99.90;;;;;;4359725;28;658546;-69
2022/01/23 09:28:13;;;;;;;54.57;20.70;;;-1.80;99.90;;;;;;4341256;28;658828;-69
2022/01/23 09:31:01;;;;;;;50.60;20.37;;;-1.60;99.90;;;;;;4337087;28;659248;-69
2022/01/23 09:33:48;;;;;;;62.20;20.77;;;-1.60;99.90;;;;;;4340926;28;658768;-69
2022/01/23 09:36:36;;;;;;;50.47;17.93;;;-1.40;99.90;;;;;;4358439;28;659738;-69
2022/01/23 09:39:36;;;;;;;56.63;20.97;;;-1.20;99.90;;;;;;4340458;28;658576;-70
2022/01/23 09:42:50;;;;;;;48.97;19.13;;;-0.90;99.90;;;;;;4317387;28;658100;-70
2022/01/23 09:45:58;;;;;;;53.95;21.08;;;-0.80;99.90;;;;;;4325363;28;658768;-69
2022/01/23 09:48:48;;;;;;;48.70;20.60;;;-0.80;99.90;;;;;;4313731;28;660434;-69
2022/01/23 09:51:35;;;;;;;52.45;19.77;;;-0.80;99.90;;;;;;4340075;28;659433;-69
2022/01/23 09:54:23;;;;;;;57.87;21.87;;;-0.70;99.90;;;;;;4342974;28;658953;-70
2022/01/23 09:57:11;;;;;;;45.47;19.80;;;-0.70;99.90;;;;;;4359889;28;660084;-69
2022/01/23 09:59:59;;;;;;;53.07;19.97;;;-0.60;99.90;;;;;;4340397;28;658673;-69
2022/01/23 10:02:49;;;;;;;54.63;19.67;;;-0.40;99.90;;;;;;4359342;28;659491;-69
2022/01/23 10:05:38;;;;;;;45.35;18.02;;;-0.10;99.90;;;;;;4336948;28;659182;-68
2022/01/23 10:08:28;;;;;;;48.27;18.63;;;0.20;99.90;;;;;;4320133;28;659809;-69
2022/01/23 10:11:16;;;;;;;47.73;17.67;;;0.30;99.90;;;;;;4320576;28;659196;-69
2022/01/23 10:14:03;;;;;;;48.53;18.30;;;0.60;99.90;;;;;;4340847;28;657650;-70
2022/01/23 10:16:51;;;;;;;34.33;14.83;;;0.50;99.90;;;;;;4358961;28;658966;-69
2022/01/23 10:19:41;;;;;;;47.60;17.73;;;0.30;99.90;;;;;;4340418;28;657673;-69
2022/01/23 10:22:29;;;;;;;48.53;18.23;;;0.40;99.90;;;;;;4341057;28;657564;-70
2022/01/23 10:25:17;;;;;;;43.80;16.37;;;0.60;99.90;;;;;;4360270;28;658413;-69
2022/01/23 10:28:07;;;;;;;39.93;16.37;;;0.60;99.90;;;;;;4337538;28;658826;-69
2022/01/23 10:30:56;;;;;;;44.53;17.73;;;0.60;99.90;;;;;;4339805;28;657407;-69
2022/01/23 10:33:47;;;;;;;37.83;14.07;;;0.80;99.90;;;;;;4349478;28;658095;-69
2022/01/23 10:36:36;;;;;;;45.77;16.40;;;0.90;99.90;;;;;;4356759;28;657639;-69
2022/01/23 10:39:23;;;;;;;44.37;16.17;;;0.90;99.90;;;;;;4358019;28;658081;-70
2022/01/23 10:42:36;;;;;;;40.93;16.93;;;0.80;99.90;;;;;;4378499;28;657965;-69
2022/01/23 10:48:40;;;;;;;46.80;16.00;;;0.80;99.90;;;;;;4353736;28;657564;-69
2022/01/23 10:51:29;;;;;;;40.07;15.80;;;0.80;99.90;;;;;;4345230;28;657818;-70
2022/01/23 10:54:22;;;;;;;41.40;15.80;;;0.70;99.90;;;;;;4376889;28;658155;-70
2022/01/23 10:57:09;;;;;;;40.80;14.40;;;0.80;99.90;;;;;;4358282;28;657561;-69
2022/01/23 10:59:57;;;;;;;37.92;14.70;;;0.50;99.90;;;;;;4376850;28;658375;-69
2022/01/23 11:02:45;;;;;;;38.03;15.13;;;0.50;99.90;;;;;;4354221;28;659091;-69
2022/01/23 11:05:33;;;;;;;34.37;12.87;;;0.30;99.90;;;;;;4376313;28;658647;-70
2022/01/23 11:08:21;;;;;;;37.13;13.63;;;0.30;99.90;;;;;;4357953;28;658010;-69
2022/01/23 11:11:10;;;;;;;37.93;14.50;;;0.20;99.90;;;;;;4356424;28;657553;-69
2022/01/23 11:20:08;;;;;;;38.40;15.38;;;-0.20;99.90;;;;;;4352640;28;657444;-69
2022/01/23 11:23:12;;;;;;;37.63;15.57;;;-0.20;99.90;;;;;;4351386;28;659659;-70
2022/01/23 11:26:19;;;;;;;43.43;15.07;;;-0.20;99.90;;;;;;4349582;28;659623;-70
2022/01/23 11:29:10;;;;;;;40.60;13.93;;;0.00;99.90;;;;;;4352274;28;659249;-69
2022/01/23 11:31:59;;;;;;;39.73;14.63;;;0.20;99.90;;;;;;4372546;28;657656;-70
2022/01/23 11:35:03;;;;;;;40.00;14.07;;;0.40;99.90;;;;;;4375091;28;658142;-70
2022/01/23 11:37:52;;;;;;;45.33;14.33;;;0.70;99.90;;;;;;4334691;28;658888;-70
2022/01/23 11:50:37;;;;;;;40.53;13.83;;;0.70;99.90;;;;;;4357793;28;658443;-70
2022/01/23 11:50:44;;;;;;;30.97;11.80;;;1.20;96.80;;;;;;4343549;28;657538;-70
2022/01/23 11:53:50;;;;;;;31.80;12.57;;;1.10;96.80;;;;;;4352813;28;657428;-70
2022/01/23 11:56:41;;;;;;;37.67;13.37;;;1.10;99.90;;;;;;4353837;28;658318;-70
2022/01/23 11:59:35;;;;;;;32.20;12.80;;;1.20;99.90;;;;;;4335639;28;658021;-70
2022/01/23 12:02:37;;;;;;;32.60;12.83;;;1.40;99.90;;;;;;4348981;28;658129;-70
2022/01/23 12:05:26;;;;;;;31.40;11.30;;;1.40;99.90;;;;;;4332911;28;659258;-70
2022/01/23 12:08:40;;;;;;;35.65;12.73;;;1.40;96.60;;;;;;4360989;28;657617;-70
2022/01/23 12:17:45;;;;;;;26.60;10.57;;;1.20;99.90;;;;;;4337703;28;658363;-71
2022/01/23 12:20:35;;;;;;;30.23;10.50;;;1.20;99.90;;;;;;4353299;28;658627;-70
2022/01/23 12:23:23;;;;;;;31.60;11.68;;;1.10;99.90;;;;;;4363930;28;657875;-71
2022/01/23 12:26:11;;;;;;;36.67;13.33;;;1.10;99.90;;;;;;4382063;28;658577;-70
2022/01/23 12:29:07;;;;;;;37.15;13.23;;;1.10;99.90;;;;;;4356904;28;657751;-71
2022/01/23 12:32:17;;;;;;;33.90;13.07;;;1.20;99.90;;;;;;4333439;28;658094;-70
2022/01/23 12:35:06;;;;;;;36.03;13.93;;;1.20;99.90;;;;;;4354710;28;658959;-70
2022/01/23 12:38:08;;;;;;;38.90;13.63;;;1.10;99.90;;;;;;4359591;28;657657;-71
2022/01/23 12:40:57;;;;;;;32.53;12.40;;;1.00;99.90;;;;;;4355912;28;657953;-70
2022/01/23 12:43:44;;;;;;;35.27;12.70;;;1.00;99.90;;;;;;4359548;28;657620;-71
2022/01/23 12:46:37;;;;;;;32.50;12.70;;;1.00;99.90;;;;;;4378303;28;658091;-70
2022/01/23 12:49:28;;;;;;;35.53;12.67;;;1.00;99.90;;;;;;4333277;28;659319;-70
2022/01/23 12:52:17;;;;;;;37.73;13.33;;;1.00;99.90;;;;;;4356263;28;658740;-70
2022/01/23 12:55:06;;;;;;;32.90;12.37;;;0.90;99.90;;;;;;4355498;28;658809;-70
2022/01/23 12:57:53;;;;;;;35.92;12.15;;;0.90;99.90;;;;;;4358983;28;657585;-71
2022/01/23 13:00:41;;;;;;;30.50;11.67;;;1.00;99.90;;;;;;4378685;28;657752;-71
2022/01/23 13:03:28;;;;;;;34.77;12.37;;;1.10;99.90;;;;;;4359893;28;657811;-71
2022/01/23 13:06:17;;;;;;;30.67;11.57;;;1.00;99.90;;;;;;4380893;28;658425;-70
2022/01/23 13:09:18;;;;;;;33.20;11.30;;;0.90;99.90;;;;;;4356077;28;658786;-69
2022/01/23 13:12:10;;;;;;;30.47;11.37;;;0.80;99.90;;;;;;4330943;28;658305;-71
2022/01/23 13:15:14;;;;;;;30.33;11.20;;;0.70;99.90;;;;;;4348871;28;657293;-71
2022/01/23 13:18:12;;;;;;;28.30;11.50;;;0.60;99.90;;;;;;4336054;28;658334;-71
2022/01/23 13:27:41;;;;;;;27.90;11.63;;;0.60;99.90;;;;;;4354738;28;657953;-70
2022/01/23 13:30:31;;;;;;;32.23;12.03;;;0.50;99.90;;;;;;4355171;28;659014;-70
2022/01/23 13:33:22;;;;;;;37.97;13.57;;;0.30;99.90;;;;;;4336801;28;658186;-70
2022/01/23 13:36:10;;;;;;;34.38;12.57;;;0.40;99.90;;;;;;4359079;28;657399;-70
2022/01/23 13:38:58;;;;;;;40.53;14.03;;;0.30;99.90;;;;;;4371462;28;658410;-71
2022/01/23 13:42:26;;;;;;;36.53;12.87;;;0.30;99.90;;;;;;4378053;28;658866;-70
2022/01/23 13:49:08;;;;;;;44.55;16.25;;;0.20;99.90;;;;;;4353755;28;657958;-71
2022/01/23 13:52:01;;;;;;;37.93;14.93;;;0.10;99.90;;;;;;4336192;28;658727;-71
2022/01/23 13:58:16;;;;;;;42.30;14.30;;;-0.10;99.90;;;;;;4336189;28;658300;-70
2022/01/23 14:01:17;;;;;;;42.73;15.53;;;-0.40;99.90;;;;;;4340351;28;659031;-71
2022/01/23 14:04:05;;;;;;;43.63;16.03;;;-0.50;99.90;;;;;;4332655;28;659371;-70
2022/01/23 14:06:53;;;;;;;41.63;15.30;;;-0.40;99.90;;;;;;4376214;28;658798;-70
2022/01/23 14:09:43;;;;;;;41.30;15.93;;;-0.50;99.90;;;;;;4353323;28;659470;-70
2022/01/23 14:12:33;;;;;;;40.03;15.43;;;-0.50;99.90;;;;;;4352459;28;659384;-70
2022/01/23 14:15:23;;;;;;;42.80;16.58;;;-0.40;99.90;;;;;;4357347;28;659324;-70
2022/01/23 14:18:12;;;;;;;43.87;16.83;;;-0.40;99.90;;;;;;4352483;28;660201;-70
2022/01/23 14:21:01;;;;;;;40.17;15.37;;;-0.40;99.90;;;;;;4352220;28;659774;-70
2022/01/23 14:23:54;;;;;;;51.30;17.13;;;-0.40;99.90;;;;;;4357254;28;658894;-70
2022/01/23 14:26:41;;;;;;;50.43;17.67;;;-0.40;99.90;;;;;;4338227;28;660084;-70
2022/01/23 14:29:29;;;;;;;49.30;18.13;;;-0.50;99.90;;;;;;4356040;28;658550;-70
2022/01/23 14:32:24;;;;;;;46.60;17.80;;;-0.60;99.90;;;;;;4375556;28;659064;-70
2022/01/23 14:35:13;;;;;;;49.83;18.67;;;-0.70;99.90;;;;;;4351637;28;658881;-69
2022/01/23 14:38:29;;;;;;;57.13;18.90;;;-0.80;99.90;;;;;;4351935;28;660024;-70
2022/01/23 14:41:17;;;;;;;52.40;20.33;;;-0.80;99.90;;;;;;4357176;28;658613;-70
2022/01/23 14:44:15;;;;;;;55.97;20.27;;;-0.80;99.90;;;;;;4356809;28;658988;-70
2022/01/23 14:47:03;;;;;;;54.30;20.17;;;-0.80;99.90;;;;;;4323525;28;658758;-70
2022/01/23 14:50:02;;;;;;;59.00;20.77;;;-0.90;99.90;;;;;;4379483;28;659740;-70
2022/01/23 14:52:55;;;;;;;58.07;20.13;;;-0.90;99.90;;;;;;4352933;28;658945;-70
2022/01/23 14:55:44;;;;;;;54.13;19.30;;;-0.90;99.90;;;;;;4334441;28;659177;-70
2022/01/23 14:58:33;;;;;;;43.03;15.73;;;-0.90;99.90;;;;;;4375902;28;658964;-70
2022/01/23 15:01:21;;;;;;;49.47;16.93;;;-0.80;99.90;;;;;;4350285;28;660177;-70
2022/01/23 15:04:09;;;;;;;40.53;15.60;;;-0.90;99.90;;;;;;4356795;28;659098;-70
2022/01/23 15:07:00;;;;;;;35.13;14.10;;;-1.00;99.90;;;;;;4374804;28;659353;-69
2022/01/23 15:09:49;;;;;;;44.73;15.90;;;-1.00;99.90;;;;;;4371856;28;658765;-70
2022/01/23 15:12:37;;;;;;;47.63;15.67;;;-1.00;99.90;;;;;;4374589;28;658783;-69
2022/01/23 15:15:25;;;;;;;43.73;14.87;;;-1.00;99.90;;;;;;4352814;28;659871;-70
2022/01/23 15:18:13;;;;;;;40.13;14.53;;;-1.00;99.90;;;;;;4374141;28;659004;-70
2022/01/23 15:21:01;;;;;;;42.67;16.37;;;-1.00;99.90;;;;;;4379807;28;659201;-70
2022/01/23 15:23:55;;;;;;;51.00;18.60;;;-1.00;99.90;;;;;;4356610;28;658750;-70
2022/01/23 15:26:43;;;;;;;65.10;24.33;;;-1.00;99.90;;;;;;4349736;28;658757;-71
2022/01/23 15:29:31;;;;;;;77.50;29.33;;;-1.00;99.90;;;;;;4375218;28;660104;-70
2022/01/23 15:32:18;;;;;;;81.33;30.77;;;-1.00;99.90;;;;;;4356395;28;658633;-70
2022/01/23 15:35:07;;;;;;;75.67;28.23;;;-1.00;99.90;;;;;;4377797;28;659602;-70
2022/01/23 15:37:55;;;;;;;86.30;29.20;;;-1.00;99.90;;;;;;4355869;28;658420;-71
2022/01/23 15:40:47;;;;;;;67.07;24.50;;;-1.00;99.90;;;;;;4376981;28;659335;-70
2022/01/23 15:43:34;;;;;;;70.57;23.23;;;-1.00;99.90;;;;;;4332028;28;660233;-70
2022/01/23 15:46:22;;;;;;;72.37;24.37;;;-1.00;99.90;;;;;;4377512;28;658177;-70
2022/01/23 15:49:10;;;;;;;73.47;24.27;;;-1.00;99.90;;;;;;4355482;28;660368;-70
2022/01/23 15:51:58;;;;;;;67.40;22.37;;;-1.00;99.90;;;;;;4378211;28;658676;-70
2022/01/23 15:54:46;;;;;;;58.87;20.63;;;-1.10;99.90;;;;;;4359091;28;659213;-71
2022/01/23 15:57:35;;;;;;;58.60;20.58;;;-1.10;99.90;;;;;;4360003;28;658711;-70
2022/01/23 16:00:23;;;;;;;57.00;21.33;;;-1.10;99.90;;;;;;4378552;28;659591;-70
2022/01/23 16:03:10;;;;;;;61.53;21.65;;;-1.10;99.90;;;;;;4360316;28;659761;-70
2022/01/23 16:05:59;;;;;;;61.55;20.48;;;-1.10;99.90;;;;;;4360903;28;658187;-70
2022/01/23 16:08:46;;;;;;;51.83;20.83;;;-1.10;99.90;;;;;;4377927;28;660770;-69
2022/01/23 16:11:34;;;;;;;56.10;20.67;;;-1.10;99.90;;;;;;4359031;28;658687;-70
2022/01/23 16:14:23;;;;;;;57.50;20.73;;;-1.20;99.90;;;;;;4377605;28;659660;-70
2022/01/23 16:17:10;;;;;;;58.93;20.93;;;-1.10;99.90;;;;;;4354675;28;659901;-70
2022/01/23 16:20:00;;;;;;;58.53;20.53;;;-1.20;99.90;;;;;;4358764;28;658715;-71
2022/01/23 16:22:48;;;;;;;50.57;17.97;;;-1.10;99.90;;;;;;4375286;28;658877;-71
2022/01/23 16:25:44;;;;;;;56.90;19.30;;;-1.20;99.90;;;;;;4381076;28;659330;-70
2022/01/23 16:28:57;;;;;;;54.67;19.07;;;-1.20;99.90;;;;;;4355079;28;659018;-70
2022/01/23 16:31:51;;;;;;;58.87;20.83;;;-1.20;99.90;;;;;;4335440;28;659847;-70
2022/01/23 16:34:48;;;;;;;56.43;19.73;;;-1.20;99.90;;;;;;4356691;28;658880;-70
2022/01/23 16:37:43;;;;;;;63.17;21.30;;;-1.20;99.90;;;;;;4353868;28;659272;-69
2022/01/23 16:40:31;;;;;;;56.43;21.23;;;-1.20;99.90;;;;;;4353592;28;659325;-70
2022/01/23 16:43:18;;;;;;;58.40;21.37;;;-1.20;99.90;;;;;;4358673;28;659010;-70